SWR4TH LSZH-LSGG
Flight info
| Callsign | SWR4TH |
|---|---|
| Flight time | 0h 27m |
| Altitude | 18000 |
| Route | VEBIT4W VEBIT T50 ROTOS Z669 ULMES ULMES1N |
| Aircraft | A320/M-SDE3FGHIRWY/LB1 |
Departure
| Time | 2026-05-07 10:58 |
|---|---|
| Airport | Zürich Airport (LSZH) |
Arrival
| Time | 2026-05-07 11:26 |
|---|---|
| Airport | Geneva International Airport (LSGG) |
| Time | Latitude | Longitude | Altitude | Speed | Heading |
|---|---|---|---|---|---|
| 2026-05-07 10:38 | 47.46051 | 8.55471 | 1399 ft | 0 kts | 6° |
| 2026-05-07 10:52 | 47.46036 | 8.55468 | 1399 ft | 4 kts | 6° |
| 2026-05-07 10:52 | 47.46009 | 8.55464 | 1406 ft | 4 kts | 7° |
| 2026-05-07 10:52 | 47.45986 | 8.55460 | 1405 ft | 4 kts | 17° |
| 2026-05-07 10:52 | 47.45970 | 8.55442 | 1404 ft | 4 kts | 85° |
| 2026-05-07 10:53 | 47.45972 | 8.55403 | 1403 ft | 3 kts | 97° |
| 2026-05-07 10:53 | 47.45972 | 8.55398 | 1404 ft | 0 kts | 96° |
| 2026-05-07 10:54 | 47.45971 | 8.55421 | 1399 ft | 5 kts | 95° |
| 2026-05-07 10:54 | 47.45964 | 8.55524 | 1409 ft | 15 kts | 95° |
| 2026-05-07 10:54 | 47.45951 | 8.55701 | 1403 ft | 19 kts | 97° |
| 2026-05-07 10:55 | 47.45938 | 8.55892 | 1406 ft | 18 kts | 93° |
| 2026-05-07 10:55 | 47.45932 | 8.56058 | 1414 ft | 14 kts | 96° |
| 2026-05-07 10:55 | 47.45921 | 8.56190 | 1412 ft | 13 kts | 97° |
| 2026-05-07 10:55 | 47.45905 | 8.56362 | 1418 ft | 21 kts | 98° |
| 2026-05-07 10:56 | 47.45814 | 8.56543 | 1419 ft | 24 kts | 120° |
| 2026-05-07 10:56 | 47.45784 | 8.56792 | 1421 ft | 25 kts | 93° |
| 2026-05-07 10:56 | 47.45752 | 8.57013 | 1425 ft | 17 kts | 138° |
| 2026-05-07 10:56 | 47.45669 | 8.56981 | 1424 ft | 12 kts | 248° |
| 2026-05-07 10:57 | 47.45668 | 8.56944 | 1424 ft | 0 kts | 273° |
| 2026-05-07 10:57 | 47.45668 | 8.56928 | 1424 ft | 17 kts | 274° |
| 2026-05-07 10:57 | 47.45709 | 8.56303 | 1414 ft | 99 kts | 276° |
| 2026-05-07 10:58 | 47.45805 | 8.54978 | 1426 ft | 155 kts | 276° |
| 2026-05-07 10:58 | 47.45945 | 8.53338 | 2006 ft | 167 kts | 277° |
| 2026-05-07 10:58 | 47.46100 | 8.51633 | 2937 ft | 167 kts | 276° |
| 2026-05-07 10:58 | 47.46218 | 8.49872 | 3591 ft | 183 kts | 273° |
| 2026-05-07 10:59 | 47.46107 | 8.47863 | 3984 ft | 212 kts | 252° |
| 2026-05-07 10:59 | 47.45228 | 8.45977 | 4518 ft | 239 kts | 226° |
| 2026-05-07 10:59 | 47.44035 | 8.44114 | 5234 ft | 256 kts | 230° |
| 2026-05-07 10:59 | 47.42881 | 8.42115 | 6211 ft | 261 kts | 232° |
| 2026-05-07 11:00 | 47.41740 | 8.40010 | 7278 ft | 263 kts | 233° |
| 2026-05-07 11:00 | 47.40616 | 8.37863 | 8374 ft | 266 kts | 233° |
| 2026-05-07 11:00 | 47.39490 | 8.35670 | 9437 ft | 271 kts | 233° |
| 2026-05-07 11:00 | 47.38450 | 8.33331 | 10381 ft | 278 kts | 243° |
| 2026-05-07 11:01 | 47.37552 | 8.30665 | 10818 ft | 302 kts | 243° |
| 2026-05-07 11:01 | 47.36572 | 8.27849 | 11480 ft | 313 kts | 243° |
| 2026-05-07 11:01 | 47.35552 | 8.24969 | 12295 ft | 319 kts | 242° |
| 2026-05-07 11:01 | 47.34508 | 8.22046 | 13117 ft | 324 kts | 242° |
| 2026-05-07 11:02 | 47.33447 | 8.19079 | 13932 ft | 329 kts | 242° |
| 2026-05-07 11:02 | 47.32374 | 8.16075 | 14652 ft | 333 kts | 243° |
| 2026-05-07 11:02 | 47.31287 | 8.13030 | 15374 ft | 338 kts | 243° |
| 2026-05-07 11:02 | 47.30188 | 8.09942 | 16095 ft | 342 kts | 243° |
| 2026-05-07 11:03 | 47.29094 | 8.06866 | 16814 ft | 346 kts | 243° |
| 2026-05-07 11:03 | 47.27969 | 8.03699 | 17539 ft | 351 kts | 243° |
| 2026-05-07 11:03 | 47.26845 | 8.00486 | 17936 ft | 354 kts | 246° |
| 2026-05-07 11:03 | 47.25897 | 7.97149 | 18025 ft | 347 kts | 249° |
| 2026-05-07 11:04 | 47.24993 | 7.93908 | 18027 ft | 339 kts | 249° |
| 2026-05-07 11:04 | 47.24100 | 7.90707 | 18029 ft | 337 kts | 249° |
| 2026-05-07 11:04 | 47.23209 | 7.87522 | 18031 ft | 337 kts | 248° |
| 2026-05-07 11:04 | 47.22315 | 7.84334 | 18029 ft | 337 kts | 248° |
| 2026-05-07 11:05 | 47.21418 | 7.81150 | 18033 ft | 337 kts | 248° |
| 2026-05-07 11:05 | 47.20523 | 7.77972 | 18024 ft | 337 kts | 248° |
| 2026-05-07 11:05 | 47.19625 | 7.74787 | 18024 ft | 337 kts | 248° |
| 2026-05-07 11:05 | 47.18534 | 7.71740 | 18025 ft | 338 kts | 237° |
| 2026-05-07 11:06 | 47.17103 | 7.69003 | 18025 ft | 339 kts | 233° |
| 2026-05-07 11:06 | 47.15633 | 7.66292 | 18027 ft | 339 kts | 233° |
| 2026-05-07 11:06 | 47.14167 | 7.63584 | 18028 ft | 339 kts | 233° |
| 2026-05-07 11:06 | 47.12704 | 7.60874 | 18022 ft | 339 kts | 233° |
| 2026-05-07 11:07 | 47.11245 | 7.58166 | 18028 ft | 338 kts | 233° |
| 2026-05-07 11:07 | 47.09785 | 7.55460 | 18030 ft | 338 kts | 233° |
| 2026-05-07 11:07 | 47.08345 | 7.52799 | 18034 ft | 338 kts | 233° |
| 2026-05-07 11:07 | 47.06883 | 7.50103 | 18035 ft | 337 kts | 233° |
| 2026-05-07 11:08 | 47.05424 | 7.47414 | 18031 ft | 337 kts | 233° |
| 2026-05-07 11:08 | 47.03965 | 7.44729 | 18029 ft | 337 kts | 233° |
| 2026-05-07 11:08 | 47.02506 | 7.42044 | 18028 ft | 337 kts | 233° |
| 2026-05-07 11:08 | 47.01042 | 7.39361 | 18030 ft | 337 kts | 232° |
| 2026-05-07 11:09 | 46.99576 | 7.36684 | 18030 ft | 337 kts | 232° |
| 2026-05-07 11:09 | 46.98109 | 7.34011 | 18028 ft | 337 kts | 232° |
| 2026-05-07 11:09 | 46.96639 | 7.31334 | 18031 ft | 337 kts | 232° |
| 2026-05-07 11:09 | 46.95169 | 7.28654 | 18026 ft | 337 kts | 232° |
| 2026-05-07 11:10 | 46.93699 | 7.25973 | 18022 ft | 337 kts | 233° |
| 2026-05-07 11:10 | 46.92233 | 7.23298 | 18029 ft | 337 kts | 233° |
| 2026-05-07 11:10 | 46.90764 | 7.20620 | 18032 ft | 336 kts | 232° |
| 2026-05-07 11:10 | 46.89301 | 7.17956 | 18034 ft | 336 kts | 233° |
| 2026-05-07 11:11 | 46.87839 | 7.15292 | 18035 ft | 336 kts | 233° |
| 2026-05-07 11:11 | 46.86382 | 7.12644 | 17898 ft | 331 kts | 232° |
| 2026-05-07 11:11 | 46.84952 | 7.10053 | 17629 ft | 324 kts | 233° |
| 2026-05-07 11:11 | 46.83544 | 7.07506 | 17362 ft | 320 kts | 233° |
| 2026-05-07 11:12 | 46.82155 | 7.04995 | 17095 ft | 316 kts | 233° |
| 2026-05-07 11:12 | 46.80787 | 7.02518 | 16794 ft | 311 kts | 232° |
| 2026-05-07 11:12 | 46.79450 | 7.00093 | 16391 ft | 310 kts | 232° |
| 2026-05-07 11:12 | 46.78083 | 6.97620 | 15994 ft | 308 kts | 232° |
| 2026-05-07 11:13 | 46.76759 | 6.95228 | 15597 ft | 307 kts | 232° |
| 2026-05-07 11:13 | 46.75420 | 6.92812 | 15201 ft | 306 kts | 232° |
| 2026-05-07 11:13 | 46.74083 | 6.90405 | 14816 ft | 305 kts | 232° |
| 2026-05-07 11:13 | 46.72746 | 6.88001 | 14421 ft | 305 kts | 232° |
| 2026-05-07 11:14 | 46.71414 | 6.85604 | 14023 ft | 305 kts | 232° |
| 2026-05-07 11:14 | 46.70081 | 6.83206 | 13601 ft | 304 kts | 232° |
| 2026-05-07 11:14 | 46.68754 | 6.80820 | 13191 ft | 302 kts | 231° |
| 2026-05-07 11:14 | 46.67434 | 6.78445 | 12789 ft | 300 kts | 231° |
| 2026-05-07 11:15 | 46.66124 | 6.76089 | 12403 ft | 298 kts | 231° |
| 2026-05-07 11:15 | 46.64815 | 6.73794 | 12132 ft | 291 kts | 230° |
| 2026-05-07 11:15 | 46.63490 | 6.71599 | 11624 ft | 284 kts | 228° |
| 2026-05-07 11:15 | 46.62166 | 6.69465 | 11223 ft | 284 kts | 228° |
| 2026-05-07 11:16 | 46.60833 | 6.67332 | 10822 ft | 286 kts | 228° |
| 2026-05-07 11:16 | 46.59496 | 6.65192 | 10419 ft | 286 kts | 228° |
| 2026-05-07 11:16 | 46.58162 | 6.63049 | 10022 ft | 285 kts | 228° |
| 2026-05-07 11:16 | 46.56839 | 6.60915 | 9632 ft | 283 kts | 228° |
| 2026-05-07 11:17 | 46.55524 | 6.58789 | 9242 ft | 282 kts | 228° |
| 2026-05-07 11:17 | 46.54653 | 6.57380 | 8960 ft | 284 kts | 228° |
| 2026-05-07 11:17 | 46.53342 | 6.55259 | 8718 ft | 280 kts | 228° |
| 2026-05-07 11:17 | 46.51622 | 6.52482 | 8244 ft | 278 kts | 228° |
| 2026-05-07 11:18 | 46.50360 | 6.50452 | 7951 ft | 260 kts | 228° |
| 2026-05-07 11:18 | 46.49205 | 6.48581 | 7828 ft | 240 kts | 228° |
| 2026-05-07 11:18 | 46.48107 | 6.46848 | 7716 ft | 225 kts | 226° |
| 2026-05-07 11:18 | 46.47399 | 6.45781 | 7649 ft | 210 kts | 226° |
| 2026-05-07 11:19 | 46.46409 | 6.44307 | 7448 ft | 201 kts | 226° |
| 2026-05-07 11:19 | 46.45464 | 6.42903 | 7116 ft | 192 kts | 226° |
| 2026-05-07 11:19 | 46.44557 | 6.41556 | 6832 ft | 181 kts | 226° |
| 2026-05-07 11:19 | 46.43707 | 6.40293 | 6596 ft | 168 kts | 226° |
| 2026-05-07 11:20 | 46.42925 | 6.39133 | 6403 ft | 163 kts | 227° |
| 2026-05-07 11:20 | 46.42091 | 6.37892 | 6161 ft | 177 kts | 227° |
| 2026-05-07 11:20 | 46.41227 | 6.36611 | 5919 ft | 178 kts | 227° |
| 2026-05-07 11:20 | 46.40363 | 6.35331 | 5682 ft | 177 kts | 227° |
| 2026-05-07 11:21 | 46.39504 | 6.34058 | 5446 ft | 177 kts | 227° |
| 2026-05-07 11:21 | 46.38642 | 6.32781 | 5208 ft | 177 kts | 226° |
| 2026-05-07 11:21 | 46.37779 | 6.31503 | 4974 ft | 178 kts | 226° |
| 2026-05-07 11:21 | 46.36916 | 6.30226 | 4735 ft | 176 kts | 226° |
| 2026-05-07 11:22 | 46.36055 | 6.28952 | 4494 ft | 177 kts | 226° |
| 2026-05-07 11:22 | 46.35196 | 6.27682 | 4253 ft | 177 kts | 226° |
| 2026-05-07 11:22 | 46.34343 | 6.26421 | 4011 ft | 172 kts | 226° |
| 2026-05-07 11:22 | 46.33517 | 6.25201 | 3789 ft | 167 kts | 226° |
| 2026-05-07 11:23 | 46.32709 | 6.24008 | 3569 ft | 165 kts | 226° |
| 2026-05-07 11:23 | 46.31902 | 6.22818 | 3350 ft | 166 kts | 226° |
| 2026-05-07 11:23 | 46.31098 | 6.21632 | 3136 ft | 164 kts | 226° |
| 2026-05-07 11:23 | 46.30336 | 6.20516 | 2881 ft | 149 kts | 226° |
| 2026-05-07 11:24 | 46.29632 | 6.19477 | 2648 ft | 141 kts | 226° |
| 2026-05-07 11:24 | 46.28946 | 6.18473 | 2512 ft | 140 kts | 226° |
| 2026-05-07 11:24 | 46.28260 | 6.17477 | 2321 ft | 140 kts | 225° |
| 2026-05-07 11:24 | 46.27576 | 6.16470 | 2116 ft | 141 kts | 224° |
| 2026-05-07 11:25 | 46.26889 | 6.15459 | 2012 ft | 141 kts | 226° |
| 2026-05-07 11:25 | 46.26223 | 6.14417 | 1859 ft | 142 kts | 224° |
| 2026-05-07 11:25 | 46.25516 | 6.13406 | 1591 ft | 143 kts | 225° |
| 2026-05-07 11:25 | 46.24828 | 6.12395 | 1417 ft | 135 kts | 223° |
| 2026-05-07 11:26 | 46.24260 | 6.11556 | 1386 ft | 88 kts | 226° |
| 2026-05-07 11:26 | 46.23931 | 6.11091 | 1397 ft | 47 kts | 215° |
| 2026-05-07 11:26 | 46.23760 | 6.11079 | 1389 ft | 19 kts | 174° |
| 2026-05-07 11:26 | 46.23654 | 6.11001 | 1387 ft | 18 kts | 225° |
| 2026-05-07 11:27 | 46.23561 | 6.10870 | 1390 ft | 19 kts | 225° |
| 2026-05-07 11:27 | 46.23466 | 6.10731 | 1387 ft | 20 kts | 223° |
| 2026-05-07 11:27 | 46.23376 | 6.10758 | 1388 ft | 14 kts | 136° |
| 2026-05-07 11:27 | 46.23374 | 6.10882 | 1389 ft | 13 kts | 81° |
| 2026-05-07 11:28 | 46.23338 | 6.10950 | 1390 ft | 7 kts | 133° |
| 2026-05-07 11:28 | 46.23334 | 6.10957 | 1390 ft | 0 kts | 135° |